createdAt,value
2022-10-18T00:01:17.214Z,53.58
2022-10-18T00:04:06.450Z,53.39
2022-10-18T00:06:53.283Z,53.35
2022-10-18T00:09:40.714Z,53.38
2022-10-18T00:12:27.982Z,53.50
2022-10-18T00:15:15.353Z,53.51
2022-10-18T00:18:02.457Z,53.39
2022-10-18T00:21:00.012Z,53.37
2022-10-18T00:23:48.004Z,54.13
2022-10-18T00:26:34.965Z,53.27
2022-10-18T00:29:21.937Z,53.55
2022-10-18T00:32:09.354Z,53.32
2022-10-18T00:34:56.286Z,53.23
2022-10-18T00:37:45.085Z,53.40
2022-10-18T00:40:32.121Z,53.54
2022-10-18T00:43:19.558Z,53.54
2022-10-18T00:46:06.754Z,53.69
2022-10-18T00:51:51.891Z,53.64
2022-10-18T00:54:43.101Z,53.78
2022-10-18T00:57:30.367Z,53.83
2022-10-18T01:00:18.398Z,53.67
2022-10-18T01:03:05.196Z,53.51
2022-10-18T01:05:52.617Z,53.92
2022-10-18T01:09:03.247Z,54.03
2022-10-18T01:12:07.315Z,55.09
2022-10-18T01:15:00.410Z,55.23
2022-10-18T01:17:57.034Z,54.33
2022-10-18T01:21:09.856Z,54.54
2022-10-18T01:24:33.257Z,55.82
2022-10-18T01:27:34.664Z,55.77
2022-10-18T01:30:53.638Z,55.21
2022-10-18T01:33:44.025Z,55.80
2022-10-18T01:36:35.721Z,54.65
2022-10-18T01:39:27.655Z,55.01
2022-10-18T01:42:17.921Z,54.86
2022-10-18T01:45:05.891Z,54.81
2022-10-18T01:47:55.950Z,54.95
2022-10-18T01:50:43.289Z,55.51
2022-10-18T01:53:32.447Z,55.42
2022-10-18T01:56:25.391Z,55.15
2022-10-18T01:59:34.404Z,55.37
2022-10-18T02:02:34.225Z,57.02
2022-10-18T02:05:31.235Z,56.40
2022-10-18T02:08:28.791Z,55.31
2022-10-18T02:11:17.628Z,55.23
2022-10-18T02:14:08.988Z,55.18
2022-10-18T02:16:58.099Z,54.71
2022-10-18T02:19:47.769Z,54.53
2022-10-18T02:22:38.161Z,54.61
2022-10-18T02:25:28.377Z,55.12
2022-10-18T02:28:16.856Z,54.89
2022-10-18T02:31:11.814Z,54.91
2022-10-18T02:34:02.094Z,54.99
2022-10-18T02:36:52.746Z,55.30
2022-10-18T02:39:45.237Z,55.50
2022-10-18T02:42:35.826Z,55.58
2022-10-18T02:45:23.679Z,55.66
2022-10-18T02:48:10.858Z,55.64
2022-10-18T02:50:58.236Z,55.30
2022-10-18T02:53:45.164Z,55.43
2022-10-18T02:56:33.827Z,55.11
2022-10-18T02:59:20.725Z,55.57
2022-10-18T03:02:07.937Z,55.69
2022-10-18T03:04:54.661Z,55.96
2022-10-18T03:07:42.005Z,56.00
2022-10-18T03:10:28.676Z,56.11
2022-10-18T03:13:17.324Z,56.44
2022-10-18T03:16:04.742Z,56.51
2022-10-18T03:18:51.802Z,56.57
2022-10-18T03:21:38.877Z,56.53
2022-10-18T03:24:26.262Z,56.69
2022-10-18T03:27:13.044Z,56.91
2022-10-18T03:30:05.935Z,56.82
2022-10-18T03:32:54.271Z,57.56
2022-10-18T03:35:41.062Z,57.21
2022-10-18T03:38:31.246Z,57.27
2022-10-18T03:41:18.851Z,57.31
2022-10-18T03:44:07.845Z,57.71
2022-10-18T03:46:56.822Z,57.57
2022-10-18T03:49:43.713Z,57.30
2022-10-18T03:52:31.672Z,57.15
2022-10-18T03:55:19.017Z,57.10
2022-10-18T03:58:06.447Z,57.01
2022-10-18T04:00:54.481Z,56.91
2022-10-18T04:03:42.942Z,56.99
2022-10-18T04:06:29.815Z,57.23
2022-10-18T04:09:17.206Z,57.38
2022-10-18T04:12:04.344Z,57.76
2022-10-18T04:14:51.844Z,57.65
2022-10-18T04:17:38.695Z,58.33
2022-10-18T04:20:27.328Z,58.19
2022-10-18T04:23:13.976Z,58.64
2022-10-18T04:26:00.917Z,58.52
2022-10-18T04:28:47.792Z,58.39
2022-10-18T04:31:34.834Z,58.53
2022-10-18T04:34:21.688Z,58.67
2022-10-18T04:37:10.201Z,58.68
2022-10-18T04:39:57.188Z,58.81
2022-10-18T04:42:44.094Z,58.96
2022-10-18T04:45:30.973Z,59.04
2022-10-18T04:48:18.182Z,59.29
2022-10-18T04:51:04.937Z,59.15
2022-10-18T04:53:53.356Z,59.60
2022-10-18T04:56:40.073Z,59.97
2022-10-18T04:59:26.979Z,60.18
2022-10-18T05:02:13.928Z,60.38
2022-10-18T05:05:00.731Z,59.93
2022-10-18T05:07:47.533Z,59.80
2022-10-18T05:10:35.925Z,60.63
2022-10-18T05:13:22.628Z,61.16
2022-10-18T05:16:09.533Z,60.54
2022-10-18T05:18:56.450Z,60.54
2022-10-18T05:21:43.344Z,60.60
2022-10-18T05:24:30.082Z,60.51
2022-10-18T05:27:18.128Z,60.35
2022-10-18T05:30:06.010Z,61.00
2022-10-18T05:32:53.223Z,61.06
2022-10-18T05:35:40.003Z,60.97
2022-10-18T05:38:27.516Z,61.38
2022-10-18T05:41:14.147Z,61.79
2022-10-18T05:44:06.045Z,61.14
2022-10-18T05:46:52.946Z,61.51
2022-10-18T05:49:40.003Z,61.06
2022-10-18T05:52:26.809Z,60.67
2022-10-18T05:55:13.691Z,61.31
2022-10-18T05:58:00.498Z,61.21
2022-10-18T06:00:49.167Z,60.64
2022-10-18T06:03:36.454Z,61.06
2022-10-18T06:06:23.371Z,61.42
2022-10-18T06:09:11.013Z,61.12
2022-10-18T06:11:58.508Z,60.83
2022-10-18T06:14:45.515Z,60.67
2022-10-18T06:17:34.044Z,61.45
2022-10-18T06:20:21.412Z,62.26
2022-10-18T06:23:07.979Z,61.49
2022-10-18T06:25:54.898Z,61.44
2022-10-18T06:28:41.841Z,60.88
2022-10-18T06:31:29.080Z,60.74
2022-10-18T06:34:17.395Z,60.87
2022-10-18T06:37:04.793Z,60.89
2022-10-18T06:39:51.568Z,61.12
2022-10-18T06:42:38.795Z,61.20
2022-10-18T06:45:25.802Z,61.65
2022-10-18T06:48:12.731Z,61.84
2022-10-18T06:51:02.354Z,61.68
2022-10-18T06:53:59.628Z,61.61
2022-10-18T06:56:57.766Z,61.51
2022-10-18T06:59:45.182Z,62.39
2022-10-18T07:02:32.127Z,62.56
2022-10-18T07:05:19.585Z,62.77
2022-10-18T07:08:08.001Z,62.80
2022-10-18T07:10:55.463Z,62.89
2022-10-18T07:13:42.062Z,62.66
2022-10-18T07:16:28.906Z,62.47
2022-10-18T07:19:16.392Z,62.87
2022-10-18T07:22:03.251Z,63.39
2022-10-18T07:24:51.385Z,63.49
2022-10-18T07:27:39.287Z,63.92
2022-10-18T07:30:26.263Z,64.59
2022-10-18T07:33:14.107Z,65.50
2022-10-18T07:36:02.244Z,65.67
2022-10-18T07:38:49.465Z,66.07
2022-10-18T07:41:38.112Z,66.18
2022-10-18T07:44:26.035Z,66.08
2022-10-18T07:47:13.336Z,66.31
2022-10-18T07:50:01.069Z,67.13
2022-10-18T07:52:48.496Z,66.21
2022-10-18T07:55:36.118Z,66.03
2022-10-18T07:58:24.455Z,65.80
2022-10-18T08:01:12.607Z,65.98
2022-10-18T08:04:06.188Z,65.87
2022-10-18T08:06:54.170Z,66.26
2022-10-18T08:09:41.200Z,66.00
2022-10-18T08:12:27.886Z,66.35
2022-10-18T08:15:16.831Z,67.49
2022-10-18T08:18:03.849Z,67.75
2022-10-18T08:20:50.755Z,67.57
2022-10-18T08:23:38.388Z,67.50
2022-10-18T08:26:26.034Z,68.20
2022-10-18T08:29:31.634Z,68.16
2022-10-18T08:32:20.605Z,68.59
2022-10-18T08:35:09.450Z,69.79
2022-10-18T08:37:56.547Z,68.42
2022-10-18T08:40:45.003Z,69.12
2022-10-18T08:43:39.779Z,70.25
2022-10-18T08:46:26.875Z,68.42
2022-10-18T08:49:24.015Z,70.36
2022-10-18T08:52:20.566Z,68.98
2022-10-18T08:55:15.547Z,69.60
2022-10-18T08:58:02.571Z,67.82
2022-10-18T09:01:00.255Z,66.85
2022-10-18T09:06:49.878Z,68.37
2022-10-18T09:09:43.642Z,67.11
2022-10-18T09:12:50.960Z,66.98
2022-10-18T09:15:48.276Z,68.43
2022-10-18T09:18:57.681Z,67.78
2022-10-18T09:21:52.453Z,69.63
2022-10-18T09:24:41.419Z,67.58
2022-10-18T09:27:46.775Z,67.38
2022-10-18T09:30:42.569Z,69.70
2022-10-18T09:33:40.244Z,68.24
2022-10-18T09:36:35.503Z,68.66
2022-10-18T09:39:29.467Z,67.46
2022-10-18T09:42:26.606Z,67.09
2022-10-18T09:45:25.183Z,67.11
2022-10-18T09:48:16.684Z,67.33
2022-10-18T09:51:06.868Z,66.67
2022-10-18T09:54:06.795Z,66.00
2022-10-18T09:57:02.268Z,66.93
2022-10-18T09:59:50.308Z,65.51
2022-10-18T10:02:37.348Z,65.03
2022-10-18T10:05:24.742Z,65.35
2022-10-18T10:08:12.267Z,65.41
2022-10-18T10:10:59.260Z,65.44
2022-10-18T10:13:48.720Z,65.21
2022-10-18T10:16:44.847Z,64.91
2022-10-18T10:19:35.736Z,65.56
2022-10-18T10:22:28.397Z,65.19
2022-10-18T10:25:31.970Z,65.85
2022-10-18T10:28:23.389Z,65.83
2022-10-18T10:31:28.922Z,65.03
2022-10-18T10:34:21.261Z,65.26
2022-10-18T10:37:25.644Z,64.51
2022-10-18T10:40:25.118Z,64.73
2022-10-18T10:43:36.472Z,64.90
2022-10-18T10:46:35.586Z,64.15
2022-10-18T10:49:41.246Z,65.01
2022-10-18T10:52:31.726Z,63.93
2022-10-18T10:55:34.793Z,63.40
2022-10-18T10:58:23.628Z,63.86
2022-10-18T11:01:32.672Z,63.96
2022-10-18T11:04:25.817Z,64.60
2022-10-18T11:07:24.391Z,64.54
2022-10-18T11:10:16.627Z,64.71
2022-10-18T11:13:18.468Z,64.54
2022-10-18T11:16:13.239Z,64.13
2022-10-18T11:19:04.134Z,64.84
2022-10-18T11:21:53.926Z,64.66
2022-10-18T11:24:41.005Z,64.39
2022-10-18T11:27:35.186Z,64.32
2022-10-18T11:30:38.058Z,64.67
2022-10-18T11:33:56.332Z,65.41
2022-10-18T11:36:56.844Z,64.72
2022-10-18T11:40:04.915Z,65.60
2022-10-18T11:43:01.818Z,64.63
2022-10-18T11:45:56.811Z,64.44
2022-10-18T11:49:01.117Z,64.42
2022-10-18T11:52:08.380Z,64.78
2022-10-18T11:55:12.516Z,64.50
2022-10-18T11:58:07.998Z,65.10
2022-10-18T12:01:02.588Z,64.30
2022-10-18T12:03:59.695Z,64.61
2022-10-18T12:06:50.409Z,64.74
2022-10-18T12:09:41.036Z,64.34
2022-10-18T12:12:33.294Z,64.58
2022-10-18T12:15:23.898Z,64.48
2022-10-18T12:18:15.836Z,64.15
2022-10-18T12:21:03.650Z,64.56
2022-10-18T12:23:54.751Z,64.24
2022-10-18T12:26:43.507Z,64.70
2022-10-18T12:29:38.179Z,64.78
2022-10-18T12:32:30.923Z,64.61
2022-10-18T12:35:21.716Z,64.46
2022-10-18T12:38:21.222Z,64.37
2022-10-18T12:41:08.342Z,65.01
2022-10-18T12:44:02.300Z,64.92
2022-10-18T12:46:45.740Z,65.18
2022-10-18T12:49:18.122Z,66.04
2022-10-18T12:51:52.920Z,64.40
2022-10-18T12:54:26.252Z,65.06
2022-10-18T12:56:54.496Z,65.23
2022-10-18T12:59:54.818Z,64.67
2022-10-18T13:02:34.117Z,65.62
2022-10-18T13:05:53.050Z,65.04
2022-10-18T13:08:45.921Z,63.94
2022-10-18T13:11:35.798Z,64.02
2022-10-18T13:14:27.317Z,64.39
2022-10-18T13:17:06.383Z,64.21
2022-10-18T13:19:51.362Z,63.42
2022-10-18T13:22:36.177Z,63.16
2022-10-18T13:25:13.147Z,63.27
2022-10-18T13:27:48.584Z,63.14
2022-10-18T13:30:34.068Z,63.29
2022-10-18T13:33:23.419Z,63.89
2022-10-18T13:35:55.484Z,63.17
2022-10-18T13:38:42.784Z,62.77
2022-10-18T13:41:12.852Z,63.29
2022-10-18T13:44:11.409Z,62.63
2022-10-18T13:47:19.610Z,62.88
2022-10-18T13:50:11.862Z,62.65
2022-10-18T13:53:20.527Z,62.83
2022-10-18T13:56:23.397Z,62.62
2022-10-18T13:59:14.360Z,62.16
2022-10-18T14:01:55.102Z,61.81
2022-10-18T14:04:47.925Z,62.09
2022-10-18T14:07:20.353Z,62.37
2022-10-18T14:10:03.432Z,62.27
2022-10-18T14:12:45.910Z,62.32
2022-10-18T14:15:19.502Z,62.30
2022-10-18T14:17:52.293Z,62.06
2022-10-18T14:20:29.924Z,62.14
2022-10-18T14:23:10.568Z,62.30
2022-10-18T14:25:46.198Z,62.55
2022-10-18T14:28:27.415Z,62.20
2022-10-18T14:31:09.132Z,62.38
2022-10-18T14:33:39.776Z,62.46
2022-10-18T14:36:15.574Z,62.34
2022-10-18T14:38:58.589Z,62.45
2022-10-18T14:41:31.532Z,63.11
2022-10-18T14:44:19.435Z,62.38
2022-10-18T14:46:50.140Z,63.35
2022-10-18T14:49:20.356Z,62.51
2022-10-18T14:51:52.575Z,62.44
2022-10-18T14:54:31.851Z,62.87
2022-10-18T14:57:05.250Z,63.30
2022-10-18T14:59:42.554Z,63.35
2022-10-18T15:02:15.596Z,63.30
2022-10-18T15:04:45.316Z,63.60
2022-10-18T15:07:17.239Z,63.23
2022-10-18T15:09:48.731Z,63.50
2022-10-18T15:12:18.974Z,63.75
2022-10-18T15:14:52.166Z,63.57
2022-10-18T15:17:27.236Z,64.12
2022-10-18T15:20:01.951Z,63.70
2022-10-18T15:22:34.529Z,64.12
2022-10-18T15:25:19.168Z,63.80
2022-10-18T15:27:50.245Z,64.91
2022-10-18T15:30:22.917Z,63.67
2022-10-18T15:32:53.696Z,63.76
2022-10-18T15:35:26.749Z,64.01
2022-10-18T15:37:57.189Z,64.02
2022-10-18T15:40:41.175Z,63.99
2022-10-18T15:43:36.117Z,64.68
2022-10-18T15:46:07.317Z,64.71
2022-10-18T15:48:39.935Z,63.75
2022-10-18T15:51:09.242Z,63.77
2022-10-18T15:53:46.323Z,63.58
2022-10-18T15:56:34.044Z,64.27
2022-10-18T15:59:05.643Z,64.56
2022-10-18T16:01:39.396Z,63.52
2022-10-18T16:04:15.023Z,63.79
2022-10-18T16:06:43.198Z,63.58
2022-10-18T16:09:16.706Z,63.43
2022-10-18T16:11:47.237Z,63.57
2022-10-18T16:14:15.597Z,63.35
2022-10-18T16:16:43.958Z,63.51
2022-10-18T16:19:15.763Z,63.50
2022-10-18T16:21:44.804Z,63.72
2022-10-18T16:24:13.285Z,63.72
2022-10-18T16:26:41.635Z,63.83
2022-10-18T16:29:15.658Z,63.91
2022-10-18T16:31:44.132Z,64.88
2022-10-18T16:34:14.971Z,64.45
2022-10-18T16:36:43.099Z,64.67
2022-10-18T16:39:16.292Z,64.51
2022-10-18T16:46:42.664Z,64.74
2022-10-18T16:51:52.996Z,65.01
2022-10-18T16:54:21.855Z,64.29
2022-10-18T16:56:50.272Z,64.72
2022-10-18T16:59:25.133Z,65.21
2022-10-18T17:01:53.730Z,65.14
2022-10-18T17:04:22.082Z,64.91
2022-10-18T17:06:50.609Z,64.54
2022-10-18T17:09:19.086Z,64.49
2022-10-18T17:11:47.384Z,64.63
2022-10-18T17:14:15.561Z,64.60
2022-10-18T17:16:48.281Z,64.57
2022-10-18T17:19:21.331Z,64.62
2022-10-18T17:21:49.781Z,64.60
2022-10-18T17:24:18.056Z,64.33
2022-10-18T17:26:46.459Z,64.31
2022-10-18T17:29:15.026Z,64.15
2022-10-18T17:31:43.638Z,64.50
2022-10-18T17:34:21.349Z,64.69
2022-10-18T17:36:51.562Z,65.51
2022-10-18T17:39:20.230Z,65.79
2022-10-18T17:41:48.642Z,65.41
2022-10-18T17:44:17.355Z,65.32
2022-10-18T17:46:45.767Z,65.45
2022-10-18T17:49:26.656Z,65.32
2022-10-18T17:51:56.889Z,65.59
2022-10-18T17:54:25.392Z,65.18
2022-10-18T17:56:54.641Z,65.39
2022-10-18T17:59:23.345Z,65.32
2022-10-18T18:01:51.911Z,65.04
2022-10-18T18:04:21.825Z,64.90
2022-10-18T18:06:52.251Z,64.73
2022-10-18T18:09:21.249Z,64.67
2022-10-18T18:11:50.456Z,64.55
2022-10-18T18:14:19.126Z,64.53
2022-10-18T18:16:48.302Z,64.44
2022-10-18T18:19:18.995Z,64.37
2022-10-18T18:21:49.492Z,64.36
2022-10-18T18:24:20.160Z,64.39
2022-10-18T18:26:48.819Z,64.61
2022-10-18T18:29:17.080Z,65.61
2022-10-18T18:31:45.663Z,65.52
2022-10-18T18:34:14.726Z,65.13
2022-10-18T18:36:44.198Z,65.04
2022-10-18T18:39:19.570Z,65.02
2022-10-18T18:41:49.691Z,65.48
2022-10-18T18:44:19.220Z,65.04
2022-10-18T18:46:48.815Z,64.88
2022-10-18T18:49:17.096Z,64.95
2022-10-18T18:51:45.426Z,65.07
2022-10-18T18:54:17.089Z,64.89
2022-10-18T18:56:45.268Z,64.96
2022-10-18T18:59:15.182Z,65.47
2022-10-18T19:01:44.327Z,65.18
2022-10-18T19:04:13.075Z,64.88
2022-10-18T19:06:44.046Z,64.92
2022-10-18T19:09:19.274Z,65.08
2022-10-18T19:11:50.707Z,65.17
2022-10-18T19:14:19.838Z,65.15
2022-10-18T19:16:49.788Z,64.80
2022-10-18T19:19:19.753Z,64.59
2022-10-18T19:21:51.344Z,64.58
2022-10-18T19:24:20.671Z,65.12
2022-10-18T19:26:52.534Z,65.16
2022-10-18T19:29:23.292Z,65.25
2022-10-18T19:31:53.187Z,66.04
2022-10-18T19:34:22.782Z,65.55
2022-10-18T19:36:51.698Z,66.07
2022-10-18T19:39:22.438Z,66.18
2022-10-18T19:41:55.225Z,65.96
2022-10-18T19:44:25.916Z,66.25
2022-10-18T19:46:54.731Z,66.08
2022-10-18T19:49:23.279Z,65.67
2022-10-18T19:51:51.827Z,65.34
2022-10-18T19:54:20.218Z,65.24
2022-10-18T19:56:48.532Z,65.30
2022-10-18T19:59:18.867Z,65.29
2022-10-18T20:01:47.322Z,65.02
2022-10-18T20:04:16.779Z,64.94
2022-10-18T20:06:45.403Z,64.97
2022-10-18T20:09:17.888Z,64.65
2022-10-18T20:11:49.343Z,64.89
2022-10-18T20:14:18.894Z,65.26
2022-10-18T20:16:47.130Z,65.53
2022-10-18T20:19:15.611Z,65.67
2022-10-18T20:21:43.874Z,65.67
2022-10-18T20:24:12.589Z,65.35
2022-10-18T20:26:41.219Z,65.15
2022-10-18T20:29:09.663Z,65.66
2022-10-18T20:31:39.542Z,65.30
2022-10-18T20:34:12.482Z,65.26
2022-10-18T20:36:41.809Z,65.59
2022-10-18T20:39:10.811Z,65.21
2022-10-18T20:41:41.144Z,65.13
2022-10-18T20:44:14.433Z,65.24
2022-10-18T20:46:44.968Z,65.28
2022-10-18T20:49:15.562Z,65.39
2022-10-18T20:51:43.991Z,65.15
2022-10-18T20:54:13.401Z,65.37
2022-10-18T20:56:42.399Z,65.02
2022-10-18T20:59:11.529Z,64.79
2022-10-18T21:01:40.357Z,65.18
2022-10-18T21:04:11.847Z,65.42
2022-10-18T21:06:42.052Z,65.65
2022-10-18T21:09:14.152Z,65.69
2022-10-18T21:11:44.873Z,65.65
2022-10-18T21:14:15.204Z,65.54
2022-10-18T21:16:44.098Z,65.26
2022-10-18T21:19:15.649Z,65.17
2022-10-18T21:21:45.877Z,65.51
2022-10-18T21:24:15.196Z,65.34
2022-10-18T21:26:43.945Z,64.87
2022-10-18T21:29:15.943Z,64.93
2022-10-18T21:31:47.007Z,64.65
2022-10-18T21:34:18.418Z,64.90
2022-10-18T21:36:48.493Z,64.94
2022-10-18T21:39:18.432Z,64.74
2022-10-18T21:41:47.279Z,64.49
2022-10-18T21:44:15.895Z,64.50
2022-10-18T21:46:44.371Z,64.35
2022-10-18T21:49:13.656Z,64.50
2022-10-18T21:51:43.184Z,64.29
2022-10-18T21:54:14.467Z,64.71
2022-10-18T21:56:43.205Z,65.81
2022-10-18T21:59:12.507Z,65.91
2022-10-18T22:01:43.568Z,65.05
2022-10-18T22:04:20.097Z,64.85
2022-10-18T22:06:49.960Z,65.00
2022-10-18T22:09:18.770Z,64.30
2022-10-18T22:11:49.393Z,64.20
2022-10-18T22:14:17.986Z,64.14
2022-10-18T22:16:46.532Z,63.96
2022-10-18T22:19:14.772Z,64.16
2022-10-18T22:21:43.010Z,64.57
2022-10-18T22:24:12.904Z,64.06
2022-10-18T22:26:42.949Z,63.88
2022-10-18T22:29:13.930Z,63.95
2022-10-18T22:31:45.220Z,63.94
2022-10-18T22:34:16.165Z,64.06
2022-10-18T22:36:44.497Z,63.97
2022-10-18T22:39:15.372Z,63.92
2022-10-18T22:41:44.517Z,64.21
2022-10-18T22:44:13.808Z,64.18
2022-10-18T22:46:42.409Z,64.02
2022-10-18T22:49:12.634Z,64.17
2022-10-18T22:51:41.121Z,64.09
2022-10-18T22:54:09.346Z,64.43
2022-10-18T22:56:39.298Z,64.77
2022-10-18T22:59:07.513Z,64.42
2022-10-18T23:01:35.988Z,64.04
2022-10-18T23:04:05.407Z,63.84
2022-10-18T23:06:35.188Z,63.67
2022-10-18T23:09:05.925Z,63.67
2022-10-18T23:11:35.355Z,63.69
2022-10-18T23:14:07.069Z,63.76
2022-10-18T23:16:36.127Z,63.92
2022-10-18T23:19:04.964Z,63.79
2022-10-18T23:21:35.416Z,63.73
2022-10-18T23:24:04.357Z,63.77
2022-10-18T23:26:32.978Z,63.80
2022-10-18T23:29:01.615Z,63.76
2022-10-18T23:31:33.102Z,63.75
2022-10-18T23:34:03.070Z,63.81
2022-10-18T23:36:32.655Z,63.54
2022-10-18T23:39:01.130Z,63.47
2022-10-18T23:41:29.385Z,63.45
2022-10-18T23:43:57.987Z,63.28
2022-10-18T23:46:26.243Z,63.33
2022-10-18T23:48:55.866Z,63.67
2022-10-18T23:51:24.412Z,63.94
2022-10-18T23:53:52.619Z,63.87
2022-10-18T23:56:21.200Z,63.65
2022-10-18T23:58:49.723Z,63.67
